createdAt,value
2019-05-23T00:02:12.363Z,101130.07
2019-05-23T00:04:50.121Z,101130.93
2019-05-23T00:07:25.829Z,101133.11
2019-05-23T00:10:01.640Z,101138.79
2019-05-23T00:12:42.809Z,101134.87
2019-05-23T00:15:29.670Z,101137.06
2019-05-23T00:18:04.936Z,101133.15
2019-05-23T00:20:38.439Z,101134.87
2019-05-23T00:23:13.936Z,101132.27
2019-05-23T00:25:49.340Z,101120.06
2019-05-23T00:28:22.831Z,101124.39
2019-05-23T00:31:00.442Z,101122.22
2019-05-23T00:33:35.017Z,101116.53
2019-05-23T00:36:10.465Z,101117.41
2019-05-23T00:38:44.023Z,101117.44
2019-05-23T00:41:19.198Z,101111.31
2019-05-23T00:43:53.798Z,101111.77
2019-05-23T00:46:27.688Z,101109.59
2019-05-23T00:49:02.937Z,101108.72
2019-05-23T00:51:36.843Z,101112.66
2019-05-23T00:54:11.321Z,101109.61
2019-05-23T00:56:45.652Z,101111.32
2019-05-23T00:59:27.211Z,101108.27
2019-05-23T01:01:54.823Z,101114.38
2019-05-23T01:04:28.483Z,101113.96
2019-05-23T01:07:02.070Z,101113.53
2019-05-23T01:09:36.318Z,101107.00
2019-05-23T01:12:09.892Z,101111.80
2019-05-23T01:14:44.352Z,101112.22
2019-05-23T01:17:20.738Z,101110.47
2019-05-23T01:19:54.382Z,101114.84
2019-05-23T01:22:28.764Z,101116.16
2019-05-23T01:25:02.168Z,101117.02
2019-05-23T01:27:35.577Z,101117.03
2019-05-23T01:30:12.553Z,101111.78
2019-05-23T01:32:47.617Z,101116.55
2019-05-23T01:35:22.442Z,101120.03
2019-05-23T01:37:56.611Z,101112.63
2019-05-23T01:40:31.050Z,101113.89
2019-05-23T01:43:05.099Z,101114.33
2019-05-23T01:45:40.311Z,101113.88
2019-05-23T01:48:15.485Z,101109.55
2019-05-23T01:50:50.132Z,101109.55
2019-05-23T01:53:24.655Z,101110.44
2019-05-23T01:55:58.406Z,101109.98
2019-05-23T01:58:33.369Z,101111.28
2019-05-23T02:01:07.205Z,101116.50
2019-05-23T02:03:41.293Z,101109.55
2019-05-23T02:06:14.844Z,101112.19
2019-05-23T02:08:48.667Z,101113.91
2019-05-23T02:11:24.114Z,101111.73
2019-05-23T02:13:57.544Z,101106.94
2019-05-23T02:16:31.622Z,101105.61
2019-05-23T02:19:05.773Z,101112.59
2019-05-23T02:21:40.036Z,101113.42
2019-05-23T02:24:15.101Z,101115.13
2019-05-23T02:26:48.577Z,101119.03
2019-05-23T02:29:22.069Z,101113.35
2019-05-23T02:31:55.940Z,101111.17
2019-05-23T02:34:30.487Z,101108.12
2019-05-23T02:37:05.589Z,101108.53
2019-05-23T02:39:40.655Z,101113.77
2019-05-23T02:42:15.692Z,101111.14
2019-05-23T02:44:50.420Z,101116.36
2019-05-23T02:47:28.737Z,101114.67
2019-05-23T02:50:04.811Z,101119.52
2019-05-23T02:52:42.314Z,101117.73
2019-05-23T02:55:19.947Z,101118.58
2019-05-23T02:57:55.385Z,101115.94
2019-05-23T03:00:55.371Z,101112.90
2019-05-23T03:03:30.398Z,101110.27
2019-05-23T03:06:06.451Z,101115.91
2019-05-23T03:08:40.712Z,101111.51
2019-05-23T03:11:30.709Z,101108.00
2019-05-23T03:14:05.451Z,101114.05
2019-05-23T03:16:42.391Z,101106.66
2019-05-23T03:19:21.814Z,101102.32
2019-05-23T03:21:58.487Z,101104.94
2019-05-23T03:24:33.598Z,101104.48
2019-05-23T03:27:09.238Z,101099.69
2019-05-23T03:29:42.614Z,101104.87
2019-05-23T03:32:18.546Z,101105.78
2019-05-23T03:34:53.679Z,101107.95
2019-05-23T03:37:27.253Z,101111.86
2019-05-23T03:40:01.883Z,101104.48
2019-05-23T03:42:36.354Z,101110.61
2019-05-23T03:45:12.153Z,101102.77
2019-05-23T03:47:46.010Z,101104.08
2019-05-23T03:50:20.453Z,101106.24
2019-05-23T03:52:55.015Z,101108.45
2019-05-23T03:55:30.629Z,101109.37
2019-05-23T03:58:04.875Z,101117.24
2019-05-23T04:00:40.275Z,101113.75
2019-05-23T04:03:14.243Z,101117.70
2019-05-23T04:05:47.690Z,101117.73
2019-05-23T04:08:22.170Z,101115.96
2019-05-23T04:10:56.492Z,101115.95
2019-05-23T04:13:30.383Z,101118.98
2019-05-23T04:16:03.837Z,101122.47
2019-05-23T04:18:37.260Z,101112.08
2019-05-23T04:21:11.042Z,101116.48
2019-05-23T04:23:44.549Z,101110.41
2019-05-23T04:26:17.937Z,101108.67
2019-05-23T04:28:52.066Z,101108.69
2019-05-23T04:31:25.768Z,101100.86
2019-05-23T04:33:59.628Z,101102.63
2019-05-23T04:36:33.171Z,101107.86
2019-05-23T04:39:07.757Z,101110.48
2019-05-23T04:41:41.272Z,101110.42
2019-05-23T04:44:16.692Z,101107.27
2019-05-23T04:46:50.364Z,101104.09
2019-05-23T04:49:23.840Z,101104.38
2019-05-23T04:51:57.769Z,101103.80
2019-05-23T04:54:31.227Z,101106.05
2019-05-23T04:57:05.029Z,101112.09
2019-05-23T04:59:39.218Z,101106.38
2019-05-23T05:02:25.483Z,101117.65
2019-05-23T05:04:47.894Z,101111.67
2019-05-23T05:07:21.834Z,101103.19
2019-05-23T05:09:55.263Z,101108.54
2019-05-23T05:12:29.031Z,101113.04
2019-05-23T05:15:02.686Z,101111.20
2019-05-23T05:17:36.424Z,101108.86
2019-05-23T05:20:10.760Z,101109.19
2019-05-23T05:22:45.377Z,101108.78
2019-05-23T05:25:19.414Z,101112.83
2019-05-23T05:27:52.900Z,101109.96
2019-05-23T05:30:26.679Z,101118.63
2019-05-23T05:33:00.145Z,101116.52
2019-05-23T05:35:35.206Z,101118.08
2019-05-23T05:38:08.610Z,101120.67
2019-05-23T05:40:42.496Z,101119.22
2019-05-23T05:43:17.024Z,101119.10
2019-05-23T05:45:50.539Z,101110.30
2019-05-23T05:48:23.944Z,101110.45
2019-05-23T05:50:57.384Z,101103.94
2019-05-23T05:53:31.416Z,101104.84
2019-05-23T05:56:05.109Z,101109.50
2019-05-23T05:58:38.843Z,101107.09
2019-05-23T06:01:13.954Z,101095.58
2019-05-23T06:03:47.409Z,101116.72
2019-05-23T06:06:31.456Z,101111.25
2019-05-23T06:09:14.301Z,101115.36
2019-05-23T06:11:47.814Z,101107.48
2019-05-23T06:14:21.728Z,101110.70
2019-05-23T06:16:56.564Z,101117.53
2019-05-23T06:19:30.289Z,101113.01
2019-05-23T06:22:04.213Z,101115.29
2019-05-23T06:24:46.894Z,101116.46
2019-05-23T06:27:15.369Z,101119.72
2019-05-23T06:29:48.848Z,101119.77
2019-05-23T06:32:23.986Z,101118.07
2019-05-23T06:34:57.396Z,101116.25
2019-05-23T06:37:34.311Z,101104.95
2019-05-23T06:40:09.955Z,101113.00
2019-05-23T06:42:44.134Z,101119.42
2019-05-23T06:45:17.933Z,101113.55
2019-05-23T06:47:51.410Z,101108.33
2019-05-23T06:50:25.492Z,101103.17
2019-05-23T06:52:59.382Z,101106.47
2019-05-23T06:55:32.778Z,101110.79
2019-05-23T06:58:06.464Z,101112.83
2019-05-23T07:00:40.767Z,101109.42
2019-05-23T07:03:14.749Z,101112.45
2019-05-23T07:05:48.477Z,101105.81
2019-05-23T07:08:25.363Z,101105.95
2019-05-23T07:10:59.143Z,101111.27
2019-05-23T07:13:34.957Z,101109.54
2019-05-23T07:16:08.356Z,101114.34
2019-05-23T07:18:44.598Z,101113.44
2019-05-23T07:21:20.093Z,101120.80
2019-05-23T07:23:53.985Z,101120.72
2019-05-23T07:26:28.651Z,101127.78
2019-05-23T07:29:02.281Z,101129.18
2019-05-23T07:31:35.859Z,101118.33
2019-05-23T07:34:09.293Z,101121.97
2019-05-23T07:36:43.220Z,101120.02
2019-05-23T07:39:17.669Z,101120.75
2019-05-23T07:41:51.237Z,101134.80
2019-05-23T07:44:25.777Z,101129.00
2019-05-23T07:47:00.720Z,101126.83
2019-05-23T07:49:34.403Z,101125.81
2019-05-23T07:52:07.868Z,101119.41
2019-05-23T07:54:49.497Z,101123.75
2019-05-23T07:57:25.105Z,101112.55
2019-05-23T07:59:58.617Z,101114.84
2019-05-23T08:02:35.632Z,101110.02
2019-05-23T08:05:11.342Z,101115.17
2019-05-23T08:07:44.857Z,101114.92
2019-05-23T08:10:32.674Z,101111.98
2019-05-23T08:12:54.096Z,101105.43
2019-05-23T08:15:28.475Z,101108.37
2019-05-23T08:18:03.291Z,101112.06
2019-05-23T08:20:36.785Z,101096.90
2019-05-23T08:23:10.255Z,101095.91
2019-05-23T08:25:43.856Z,101107.22
2019-05-23T08:28:17.398Z,101100.10
2019-05-23T08:30:51.101Z,101099.20
2019-05-23T08:33:24.543Z,101095.31
2019-05-23T08:35:57.965Z,101094.56
2019-05-23T08:38:31.355Z,101086.50
2019-05-23T08:41:06.894Z,101088.97
2019-05-23T08:43:40.369Z,101093.64
2019-05-23T08:46:15.021Z,101087.70
2019-05-23T08:48:48.765Z,101089.09
2019-05-23T08:51:22.292Z,101087.81
2019-05-23T08:53:56.046Z,101085.56
2019-05-23T08:56:29.920Z,101079.94
2019-05-23T08:59:04.210Z,101074.14
2019-05-23T09:01:37.781Z,101075.45
2019-05-23T09:04:11.724Z,101073.45
2019-05-23T09:06:45.332Z,101067.17
2019-05-23T09:09:29.275Z,101070.88
2019-05-23T09:11:54.132Z,101067.69
2019-05-23T09:14:28.259Z,101062.41
2019-05-23T09:17:02.054Z,101058.36
2019-05-23T09:19:35.510Z,101048.20
2019-05-23T09:22:08.956Z,101057.76
2019-05-23T09:24:42.349Z,101049.16
2019-05-23T09:27:15.752Z,101047.48
2019-05-23T09:29:49.531Z,101046.08
2019-05-23T09:32:23.303Z,101057.03
2019-05-23T09:34:56.715Z,101054.83
2019-05-23T09:37:30.667Z,101051.95
2019-05-23T09:40:05.717Z,101061.16
2019-05-23T09:42:39.159Z,101056.08
2019-05-23T09:45:13.883Z,101051.11
2019-05-23T09:47:51.009Z,101033.84
2019-05-23T09:50:24.723Z,101038.08
2019-05-23T09:52:58.203Z,101035.74
2019-05-23T09:55:31.713Z,101035.42
2019-05-23T09:58:05.215Z,101036.38
2019-05-23T10:00:39.039Z,101026.71
2019-05-23T10:03:12.927Z,101035.42
2019-05-23T10:05:46.322Z,101031.58
2019-05-23T10:08:19.896Z,101021.00
2019-05-23T10:10:53.360Z,101026.47
2019-05-23T10:13:38.417Z,101027.98
2019-05-23T10:16:07.139Z,101017.95
2019-05-23T10:18:40.665Z,101020.94
2019-05-23T10:21:14.083Z,101014.78
2019-05-23T10:23:47.491Z,101018.33
2019-05-23T10:26:21.201Z,101017.78
2019-05-23T10:28:54.722Z,101012.92
2019-05-23T10:31:28.123Z,101007.23
2019-05-23T10:34:01.576Z,101007.39
2019-05-23T10:36:34.981Z,101001.04
2019-05-23T10:39:11.343Z,101003.93
2019-05-23T10:41:44.817Z,100998.75
2019-05-23T10:44:18.627Z,101003.58
2019-05-23T10:46:52.108Z,101000.23
2019-05-23T10:49:26.084Z,100996.75
2019-05-23T10:52:00.383Z,101001.53
2019-05-23T10:54:33.826Z,101000.01
2019-05-23T10:57:07.239Z,100994.16
2019-05-23T10:59:40.666Z,100989.05
2019-05-23T11:02:14.746Z,100991.95
2019-05-23T11:04:48.318Z,100981.94
2019-05-23T11:07:22.428Z,100975.43
2019-05-23T11:09:56.022Z,100975.80
2019-05-23T11:12:29.634Z,100967.55
2019-05-23T11:15:03.776Z,100963.06
2019-05-23T11:17:38.203Z,100963.61
2019-05-23T11:20:13.487Z,100961.77
2019-05-23T11:22:46.950Z,100953.27
2019-05-23T11:25:20.529Z,100954.66
2019-05-23T11:27:54.355Z,100944.12
2019-05-23T11:30:41.660Z,100955.79
2019-05-23T11:33:15.827Z,100955.39
2019-05-23T11:35:49.905Z,100953.02
2019-05-23T11:38:23.396Z,100947.00
2019-05-23T11:40:56.936Z,100951.67
2019-05-23T11:43:30.355Z,100952.53
2019-05-23T11:46:19.381Z,100940.52
2019-05-23T11:48:53.158Z,100937.32
2019-05-23T11:51:27.276Z,100935.51
2019-05-23T11:54:07.954Z,100925.30
2019-05-23T11:56:37.141Z,100929.56
2019-05-23T11:59:10.977Z,100929.30
2019-05-23T12:02:01.937Z,100919.47
2019-05-23T12:04:36.752Z,100924.03
2019-05-23T12:07:12.078Z,100918.45
2019-05-23T12:09:46.314Z,100919.78
2019-05-23T12:12:19.896Z,100913.44
2019-05-23T12:14:53.549Z,100915.14
2019-05-23T12:17:29.251Z,100915.02
2019-05-23T12:20:03.028Z,100914.53
2019-05-23T12:22:36.813Z,100906.59
2019-05-23T12:25:21.772Z,100901.39
2019-05-23T12:27:47.172Z,100906.27
2019-05-23T12:30:21.854Z,100905.84
2019-05-23T12:32:55.343Z,100898.66
2019-05-23T12:35:28.874Z,100897.67
2019-05-23T12:38:02.803Z,100899.86
2019-05-23T12:40:36.472Z,100896.58
2019-05-23T12:43:09.888Z,100891.75
2019-05-23T12:45:45.236Z,100891.25
2019-05-23T12:48:20.437Z,100899.03
2019-05-23T12:50:55.732Z,100890.30
2019-05-23T12:53:29.196Z,100890.69
2019-05-23T12:56:02.786Z,100884.88
2019-05-23T12:58:36.625Z,100884.05
2019-05-23T13:01:12.143Z,100878.24
2019-05-23T13:03:45.594Z,100883.30
2019-05-23T13:06:19.371Z,100881.61
2019-05-23T13:08:52.853Z,100877.68
2019-05-23T13:11:26.787Z,100875.67
2019-05-23T13:14:00.216Z,100876.80
2019-05-23T13:16:33.647Z,100882.66
2019-05-23T13:19:07.099Z,100877.62
2019-05-23T13:21:40.634Z,100876.00
2019-05-23T13:24:14.199Z,100872.74
2019-05-23T13:26:47.989Z,100873.77
2019-05-23T13:29:24.211Z,100867.16
2019-05-23T13:31:56.686Z,100874.44
2019-05-23T13:34:30.132Z,100867.66
2019-05-23T13:37:03.715Z,100865.36
2019-05-23T13:39:37.347Z,100857.94
2019-05-23T13:42:10.917Z,100856.11
2019-05-23T13:44:44.871Z,100859.36
2019-05-23T13:47:18.412Z,100862.32
2019-05-23T13:49:51.840Z,100854.67
2019-05-23T13:52:25.312Z,100853.04
2019-05-23T13:54:58.803Z,100845.22
2019-05-23T13:57:32.488Z,100851.95
2019-05-23T14:00:08.129Z,100849.89
2019-05-23T14:02:41.534Z,100839.83
2019-05-23T14:05:18.865Z,100833.20
2019-05-23T14:07:50.669Z,100836.79
2019-05-23T14:10:24.451Z,100832.68
2019-05-23T14:12:57.902Z,100834.10
2019-05-23T14:15:42.313Z,100831.53
2019-05-23T14:18:17.445Z,100827.78
2019-05-23T14:20:51.875Z,100826.83
2019-05-23T14:23:29.998Z,100826.76
2019-05-23T14:26:03.478Z,100819.78
2019-05-23T14:28:37.031Z,100815.15
2019-05-23T14:31:12.408Z,100803.55
2019-05-23T14:33:47.531Z,100794.79
2019-05-23T14:36:32.660Z,100789.52
2019-05-23T14:39:09.489Z,100794.09
2019-05-23T14:41:45.799Z,100788.00
2019-05-23T14:44:19.682Z,100788.44
2019-05-23T14:47:10.986Z,100778.16
2019-05-23T14:50:02.389Z,100780.57
2019-05-23T14:52:37.538Z,100779.61
2019-05-23T14:55:13.347Z,100782.00
2019-05-23T14:57:46.797Z,100777.97
2019-05-23T15:00:20.632Z,100787.86
2019-05-23T15:02:54.212Z,100780.58
2019-05-23T15:05:27.766Z,100778.39
2019-05-23T15:08:01.379Z,100780.49
2019-05-23T15:10:34.942Z,100776.59
2019-05-23T15:13:08.464Z,100774.62
2019-05-23T15:15:41.943Z,100772.55
2019-05-23T15:18:15.624Z,100772.33
2019-05-23T15:20:49.112Z,100764.23
2019-05-23T15:23:24.081Z,100768.13
2019-05-23T15:25:57.660Z,100768.23
2019-05-23T15:28:31.237Z,100770.31
2019-05-23T15:31:05.341Z,100764.55
2019-05-23T15:33:38.841Z,100762.20
2019-05-23T15:36:12.394Z,100759.33
2019-05-23T15:38:45.838Z,100762.76
2019-05-23T15:41:19.248Z,100757.56
2019-05-23T15:43:52.651Z,100743.07
2019-05-23T15:46:26.055Z,100751.92
2019-05-23T15:48:59.971Z,100747.30
2019-05-23T15:51:35.026Z,100748.50
2019-05-23T15:54:12.788Z,100747.73
2019-05-23T15:57:04.020Z,100749.91
2019-05-23T15:59:39.215Z,100746.17
2019-05-23T16:02:14.611Z,100745.05
2019-05-23T16:04:48.583Z,100736.56
2019-05-23T16:07:22.172Z,100734.45
2019-05-23T16:09:55.996Z,100727.45
2019-05-23T16:12:29.456Z,100731.61
2019-05-23T16:15:03.433Z,100728.01
2019-05-23T16:17:36.857Z,100725.20
2019-05-23T16:20:10.525Z,100722.14
2019-05-23T16:22:44.629Z,100723.48
2019-05-23T16:25:18.886Z,100718.08
2019-05-23T16:27:53.449Z,100718.83
2019-05-23T16:30:27.190Z,100715.39
2019-05-23T16:33:00.595Z,100710.20
2019-05-23T16:35:34.384Z,100705.44
2019-05-23T16:38:07.790Z,100713.85
2019-05-23T16:40:41.199Z,100716.09
2019-05-23T16:43:14.780Z,100715.51
2019-05-23T16:45:48.235Z,100712.52
2019-05-23T16:48:21.673Z,100706.67
2019-05-23T16:50:55.109Z,100698.52
2019-05-23T16:53:29.822Z,100708.44
2019-05-23T16:56:08.408Z,100706.48
2019-05-23T16:59:03.180Z,100706.48
2019-05-23T17:01:47.001Z,100710.14
2019-05-23T17:04:22.278Z,100706.13
2019-05-23T17:07:03.566Z,100710.93
2019-05-23T17:10:07.417Z,100708.12
2019-05-23T17:12:39.332Z,100699.23
2019-05-23T17:15:33.691Z,100698.95
2019-05-23T17:18:08.815Z,100698.25
2019-05-23T17:20:46.944Z,100700.38
2019-05-23T17:23:36.967Z,100701.41
2019-05-23T17:26:14.446Z,100696.86
2019-05-23T17:28:49.586Z,100698.05
2019-05-23T17:31:27.124Z,100691.59
2019-05-23T17:34:00.569Z,100681.89
2019-05-23T17:36:34.503Z,100690.79
2019-05-23T17:39:10.184Z,100683.08
2019-05-23T17:41:44.158Z,100679.91
2019-05-23T17:44:18.040Z,100682.64
2019-05-23T17:46:51.507Z,100680.92
2019-05-23T17:49:24.935Z,100678.20
2019-05-23T17:51:58.333Z,100683.18
2019-05-23T17:54:32.028Z,100695.44
2019-05-23T17:57:05.577Z,100688.89
2019-05-23T17:59:39.362Z,100688.16
2019-05-23T18:02:13.048Z,100691.01
2019-05-23T18:04:46.518Z,100690.64
2019-05-23T18:07:20.080Z,100685.99
2019-05-23T18:09:53.511Z,100685.69
2019-05-23T18:12:26.979Z,100690.92
2019-05-23T18:15:00.647Z,100691.55
2019-05-23T18:17:34.154Z,100686.55
2019-05-23T18:20:08.598Z,100690.70
2019-05-23T18:22:42.184Z,100684.37
2019-05-23T18:25:17.380Z,100688.16
2019-05-23T18:27:51.297Z,100683.09
2019-05-23T18:30:38.713Z,100682.16
2019-05-23T18:33:12.645Z,100683.89
2019-05-23T18:35:48.087Z,100679.94
2019-05-23T18:38:21.867Z,100685.56
2019-05-23T18:41:03.103Z,100687.44
2019-05-23T18:43:31.753Z,100687.44
2019-05-23T18:46:09.755Z,100683.77
2019-05-23T18:48:43.728Z,100691.29
2019-05-23T18:51:17.509Z,100702.16
2019-05-23T18:53:51.173Z,100698.61
2019-05-23T18:56:24.906Z,100693.94
2019-05-23T18:58:58.875Z,100701.59
2019-05-23T19:01:33.253Z,100706.12
2019-05-23T19:04:07.552Z,100698.28
2019-05-23T19:06:41.048Z,100706.03
2019-05-23T19:09:16.195Z,100707.94
2019-05-23T19:11:50.364Z,100710.97
2019-05-23T19:14:23.863Z,100708.52
2019-05-23T19:16:57.692Z,100715.77
2019-05-23T19:19:31.734Z,100718.91
2019-05-23T19:22:05.521Z,100717.03
2019-05-23T19:24:39.197Z,100720.34
2019-05-23T19:27:14.507Z,100720.34
2019-05-23T19:29:48.777Z,100718.55
2019-05-23T19:32:23.650Z,100719.16
2019-05-23T19:34:57.615Z,100722.03
2019-05-23T19:37:31.023Z,100722.03
2019-05-23T19:40:08.151Z,100724.41
2019-05-23T19:42:41.746Z,100717.67
2019-05-23T19:45:15.297Z,100724.55
2019-05-23T19:47:48.732Z,100724.67
2019-05-23T19:50:22.754Z,100726.86
2019-05-23T19:52:56.339Z,100725.48
2019-05-23T19:55:29.940Z,100725.01
2019-05-23T19:58:03.940Z,100730.50
2019-05-23T20:00:38.787Z,100731.95
2019-05-23T20:03:12.197Z,100732.63
2019-05-23T20:05:47.571Z,100731.02
2019-05-23T20:08:21.032Z,100720.42
2019-05-23T20:10:54.541Z,100722.23
2019-05-23T20:13:28.226Z,100721.42
2019-05-23T20:16:02.146Z,100726.73
2019-05-23T20:18:35.720Z,100723.48
2019-05-23T20:21:09.192Z,100715.70
2019-05-23T20:23:42.697Z,100720.34
2019-05-23T20:26:16.385Z,100720.52
2019-05-23T20:28:49.869Z,100718.75
2019-05-23T20:31:23.367Z,100717.14
2019-05-23T20:33:56.947Z,100716.30
2019-05-23T20:36:30.333Z,100719.45
2019-05-23T20:39:05.354Z,100719.11
2019-05-23T20:41:39.421Z,100715.05
2019-05-23T20:44:13.008Z,100721.55
2019-05-23T20:46:46.487Z,100713.11
2019-05-23T20:49:19.919Z,100713.53
2019-05-23T20:51:53.461Z,100715.52
2019-05-23T20:54:27.497Z,100717.78
2019-05-23T20:57:01.037Z,100719.80
2019-05-23T20:59:34.935Z,100716.16
2019-05-23T21:02:08.559Z,100718.66
2019-05-23T21:04:41.981Z,100720.42
2019-05-23T21:07:15.394Z,100713.78
2019-05-23T21:09:48.821Z,100714.20
2019-05-23T21:12:30.244Z,100715.96
2019-05-23T21:14:57.415Z,100719.98
2019-05-23T21:17:31.557Z,100720.81
2019-05-23T21:20:06.530Z,100721.92
2019-05-23T21:22:39.927Z,100722.50
2019-05-23T21:25:13.522Z,100717.17
2019-05-23T21:27:46.928Z,100720.67
2019-05-23T21:30:20.518Z,100719.74
2019-05-23T21:32:53.937Z,100734.05
2019-05-23T21:35:27.387Z,100723.92
2019-05-23T21:38:00.859Z,100724.15
2019-05-23T21:40:40.056Z,100727.78
2019-05-23T21:43:13.822Z,100718.59
2019-05-23T21:45:47.529Z,100722.13
2019-05-23T21:48:21.187Z,100729.50
2019-05-23T21:50:54.675Z,100728.66
2019-05-23T21:53:28.074Z,100724.15
2019-05-23T21:56:01.507Z,100723.47
2019-05-23T21:58:34.914Z,100718.63
2019-05-23T22:01:11.717Z,100714.27
2019-05-23T22:03:52.802Z,100717.63
2019-05-23T22:06:30.883Z,100720.48
2019-05-23T22:09:07.305Z,100723.41
2019-05-23T22:11:40.736Z,100722.58
2019-05-23T22:14:14.277Z,100718.13
2019-05-23T22:16:48.398Z,100718.14
2019-05-23T22:19:25.538Z,100717.49
2019-05-23T22:21:59.023Z,100723.59
2019-05-23T22:24:32.502Z,100720.58
2019-05-23T22:27:07.720Z,100715.52
2019-05-23T22:29:41.126Z,100719.08
2019-05-23T22:32:16.194Z,100718.23
2019-05-23T22:34:52.190Z,100715.61
2019-05-23T22:37:25.982Z,100708.02
2019-05-23T22:39:59.473Z,100708.80
2019-05-23T22:42:34.723Z,100706.72
2019-05-23T22:45:10.211Z,100710.78
2019-05-23T22:47:43.633Z,100707.02
2019-05-23T22:50:17.370Z,100709.52
2019-05-23T22:52:50.806Z,100708.70
2019-05-23T22:55:24.353Z,100712.70
2019-05-23T22:57:57.845Z,100709.04
2019-05-23T23:00:39.059Z,100708.68
2019-05-23T23:03:12.567Z,100710.09
2019-05-23T23:05:45.966Z,100707.28
2019-05-23T23:08:20.635Z,100703.58
2019-05-23T23:10:54.202Z,100705.66
2019-05-23T23:13:38.071Z,100704.66
2019-05-23T23:16:03.270Z,100706.52
2019-05-23T23:18:36.746Z,100705.28
2019-05-23T23:21:10.160Z,100710.46
2019-05-23T23:23:43.654Z,100704.50
2019-05-23T23:26:17.080Z,100698.36
2019-05-23T23:28:50.632Z,100697.17
2019-05-23T23:31:24.123Z,100697.44
2019-05-23T23:33:57.588Z,100697.73
2019-05-23T23:36:31.054Z,100698.84
2019-05-23T23:39:05.507Z,100690.66
2019-05-23T23:41:38.916Z,100687.92
2019-05-23T23:44:12.688Z,100695.91
2019-05-23T23:47:03.552Z,100695.25
2019-05-23T23:49:55.264Z,100701.12
2019-05-23T23:52:46.231Z,100702.52
2019-05-23T23:55:37.990Z,100695.10
2019-05-23T23:58:10.680Z,100694.39
